createdAt,value
2018-09-01T00:01:37.150Z,33.11
2018-09-01T00:04:07.938Z,33.13
2018-09-01T00:06:38.589Z,33.17
2018-09-01T00:09:09.432Z,33.07
2018-09-01T00:11:39.881Z,33.13
2018-09-01T00:14:10.665Z,33.07
2018-09-01T00:16:41.257Z,33.11
2018-09-01T00:19:11.860Z,32.97
2018-09-01T00:21:42.460Z,33.04
2018-09-01T00:24:13.757Z,33.00
2018-09-01T00:26:44.364Z,32.92
2018-09-01T00:29:14.985Z,32.84
2018-09-01T00:31:45.621Z,32.69
2018-09-01T00:34:16.294Z,32.72
2018-09-01T00:36:46.856Z,32.45
2018-09-01T00:39:17.672Z,32.11
2018-09-01T00:41:48.185Z,30.99
2018-09-01T00:44:18.888Z,31.69
2018-09-01T00:46:49.550Z,32.03
2018-09-01T00:49:20.350Z,32.17
2018-09-01T00:51:50.780Z,31.77
2018-09-01T00:54:21.424Z,31.44
2018-09-01T00:56:51.904Z,30.77
2018-09-01T00:59:22.673Z,30.70
2018-09-01T01:01:53.401Z,30.48
2018-09-01T01:04:24.061Z,29.91
2018-09-01T01:06:54.808Z,29.75
2018-09-01T01:09:26.513Z,30.42
2018-09-01T01:11:57.155Z,30.19
2018-09-01T01:14:27.942Z,31.11
2018-09-01T01:16:58.613Z,31.37
2018-09-01T01:19:29.365Z,31.40
2018-09-01T01:22:00.038Z,31.35
2018-09-01T01:24:30.770Z,29.91
2018-09-01T01:27:01.596Z,30.14
2018-09-01T01:29:32.633Z,30.12
2018-09-01T01:32:03.268Z,30.09
2018-09-01T01:34:34.161Z,29.71
2018-09-01T01:37:04.664Z,30.42
2018-09-01T01:39:35.524Z,30.59
2018-09-01T01:42:06.181Z,29.36
2018-09-01T01:44:36.965Z,29.10
2018-09-01T01:47:07.576Z,29.61
2018-09-01T01:49:38.395Z,29.20
2018-09-01T01:52:08.830Z,29.47
2018-09-01T01:54:39.618Z,30.18
2018-09-01T01:57:10.253Z,29.62
2018-09-01T01:59:40.949Z,29.90
2018-09-01T02:02:11.561Z,29.87
2018-09-01T02:04:42.320Z,29.82
2018-09-01T02:07:12.850Z,28.82
2018-09-01T02:09:43.485Z,28.97
2018-09-01T02:12:13.992Z,28.53
2018-09-01T02:14:44.724Z,28.60
2018-09-01T02:17:15.489Z,28.86
2018-09-01T02:19:46.242Z,29.34
2018-09-01T02:22:16.860Z,29.42
2018-09-01T02:24:47.658Z,29.62
2018-09-01T02:27:18.537Z,29.65
2018-09-01T02:29:49.448Z,29.69
2018-09-01T02:32:20.157Z,29.70
2018-09-01T02:34:50.818Z,29.34
2018-09-01T02:37:21.520Z,29.64
2018-09-01T02:39:52.447Z,29.69
2018-09-01T02:42:23.198Z,29.73
2018-09-01T02:44:53.987Z,29.64
2018-09-01T02:47:24.968Z,29.89
2018-09-01T02:49:55.623Z,29.93
2018-09-01T02:52:26.359Z,30.23
2018-09-01T02:54:57.318Z,30.42
2018-09-01T02:57:28.002Z,30.34
2018-09-01T02:59:59.128Z,29.11
2018-09-01T03:02:34.512Z,29.58
2018-09-01T03:05:05.512Z,28.99
2018-09-01T03:07:36.096Z,29.53
2018-09-01T03:10:06.805Z,29.08
2018-09-01T03:12:37.520Z,28.15
2018-09-01T03:15:09.196Z,28.57
2018-09-01T03:17:39.918Z,29.54
2018-09-01T03:20:10.283Z,29.56
2018-09-01T03:22:40.581Z,29.41
2018-09-01T03:25:11.399Z,29.34
2018-09-01T03:27:41.813Z,29.48
2018-09-01T03:30:12.229Z,29.33
2018-09-01T03:32:42.608Z,29.02
2018-09-01T03:35:13.567Z,28.40
2018-09-01T03:37:44.079Z,28.94
2018-09-01T03:40:14.882Z,28.75
2018-09-01T03:42:45.459Z,28.72
2018-09-01T03:45:16.224Z,28.82
2018-09-01T03:47:46.909Z,29.39
2018-09-01T03:50:17.744Z,29.23
2018-09-01T03:52:48.398Z,29.23
2018-09-01T03:55:19.239Z,29.81
2018-09-01T03:57:49.801Z,29.98
2018-09-01T04:00:20.661Z,29.57
2018-09-01T04:02:51.325Z,29.51
2018-09-01T04:05:22.164Z,29.43
2018-09-01T04:07:52.768Z,29.80
2018-09-01T04:10:24.061Z,30.09
2018-09-01T04:12:54.681Z,29.79
2018-09-01T04:15:25.553Z,29.46
2018-09-01T04:17:56.196Z,28.90
2018-09-01T04:20:27.093Z,29.56
2018-09-01T04:22:57.766Z,29.30
2018-09-01T04:25:28.416Z,29.56
2018-09-01T04:27:59.078Z,29.87
2018-09-01T04:30:29.689Z,29.92
2018-09-01T04:33:00.315Z,30.12
2018-09-01T04:35:31.113Z,30.50
2018-09-01T04:38:01.773Z,30.16
2018-09-01T04:40:32.604Z,30.10
2018-09-01T04:43:03.341Z,30.44
2018-09-01T04:45:34.205Z,31.22
2018-09-01T04:48:04.825Z,30.93
2018-09-01T04:50:35.544Z,31.53
2018-09-01T04:53:06.017Z,31.57
2018-09-01T04:55:36.833Z,32.23
2018-09-01T04:58:07.361Z,32.30
2018-09-01T05:00:38.305Z,31.78
2018-09-01T05:03:08.858Z,31.89
2018-09-01T05:05:39.809Z,32.74
2018-09-01T05:08:10.377Z,33.64
2018-09-01T05:10:41.129Z,33.45
2018-09-01T05:13:11.765Z,32.98
2018-09-01T05:15:42.732Z,33.16
2018-09-01T05:18:13.284Z,33.41
2018-09-01T05:20:44.250Z,33.27
2018-09-01T05:23:14.904Z,32.34
2018-09-01T05:25:45.628Z,32.16
2018-09-01T05:28:16.265Z,32.34
2018-09-01T05:30:47.092Z,31.96
2018-09-01T05:33:17.817Z,32.20
2018-09-01T05:35:48.555Z,33.38
2018-09-01T05:38:19.201Z,35.33
2018-09-01T05:40:49.961Z,35.49
2018-09-01T05:43:20.514Z,35.24
2018-09-01T05:45:51.128Z,35.90
2018-09-01T05:48:21.884Z,35.48
2018-09-01T05:50:52.851Z,35.28
2018-09-01T05:53:23.481Z,33.98
2018-09-01T05:55:54.457Z,33.93
2018-09-01T05:58:25.153Z,34.07
2018-09-01T06:00:56.228Z,34.60
2018-09-01T06:03:26.784Z,34.37
2018-09-01T06:06:03.066Z,35.05
2018-09-01T06:08:33.698Z,35.18
2018-09-01T06:11:04.504Z,35.90
2018-09-01T06:13:35.031Z,35.44
2018-09-01T06:16:05.789Z,35.37
2018-09-01T06:18:36.524Z,35.13
2018-09-01T06:21:07.687Z,35.47
2018-09-01T06:23:38.616Z,35.94
2018-09-01T06:26:09.999Z,35.46
2018-09-01T06:28:43.784Z,35.57
2018-09-01T06:31:16.276Z,36.69
2018-09-01T06:33:48.978Z,37.14
2018-09-01T06:36:19.845Z,36.59
2018-09-01T06:38:50.487Z,37.64
2018-09-01T06:41:21.238Z,37.15
2018-09-01T06:43:51.753Z,36.79
2018-09-01T06:46:22.585Z,36.99
2018-09-01T06:48:53.177Z,37.00
2018-09-01T06:51:23.878Z,37.16
2018-09-01T06:53:54.511Z,38.06
2018-09-01T06:56:25.456Z,37.50
2018-09-01T06:58:56.213Z,37.14
2018-09-01T07:01:27.294Z,37.15
2018-09-01T07:03:58.048Z,38.10
2018-09-01T07:06:29.276Z,38.44
2018-09-01T07:09:00.449Z,38.05
2018-09-01T07:11:31.581Z,37.44
2018-09-01T07:14:06.425Z,38.64
2018-09-01T07:16:37.142Z,39.07
2018-09-01T07:19:07.773Z,39.48
2018-09-01T07:21:39.646Z,38.65
2018-09-01T07:24:10.414Z,39.33
2018-09-01T07:26:41.254Z,39.93
2018-09-01T07:29:12.261Z,39.97
2018-09-01T07:31:43.713Z,40.33
2018-09-01T07:34:14.437Z,40.07
2018-09-01T07:36:45.172Z,39.52
2018-09-01T07:39:15.685Z,40.13
2018-09-01T07:41:46.689Z,40.56
2018-09-01T07:44:17.272Z,40.69
2018-09-01T07:46:47.969Z,40.44
2018-09-01T07:49:18.738Z,41.05
2018-09-01T07:51:49.830Z,40.26
2018-09-01T07:54:20.445Z,40.15
2018-09-01T07:56:51.001Z,39.92
2018-09-01T07:59:21.604Z,40.51
2018-09-01T08:01:52.745Z,40.91
2018-09-01T08:04:23.686Z,41.37
2018-09-01T08:06:54.503Z,41.12
2018-09-01T08:09:25.216Z,41.73
2018-09-01T08:11:56.239Z,40.99
2018-09-01T08:14:27.108Z,41.84
2018-09-01T08:16:58.766Z,42.47
2018-09-01T08:19:29.494Z,41.48
2018-09-01T08:22:00.897Z,41.27
2018-09-01T08:24:31.528Z,42.88
2018-09-01T08:27:02.316Z,42.02
2018-09-01T08:29:32.986Z,41.80
2018-09-01T08:32:03.952Z,42.47
2018-09-01T08:34:34.737Z,42.22
2018-09-01T08:37:05.473Z,43.13
2018-09-01T08:39:36.385Z,43.58
2018-09-01T08:42:07.361Z,43.80
2018-09-01T08:44:38.082Z,44.25
2018-09-01T08:47:09.189Z,43.28
2018-09-01T08:49:40.050Z,43.90
2018-09-01T08:52:11.073Z,42.87
2018-09-01T08:54:41.668Z,43.31
2018-09-01T08:57:12.470Z,42.57
2018-09-01T08:59:43.192Z,43.92
2018-09-01T09:02:14.191Z,43.06
2018-09-01T09:04:44.596Z,44.32
2018-09-01T09:07:15.659Z,43.31
2018-09-01T09:09:46.336Z,45.12
2018-09-01T09:12:17.212Z,44.98
2018-09-01T09:14:47.917Z,45.52
2018-09-01T09:17:18.918Z,46.22
2018-09-01T09:19:49.447Z,44.16
2018-09-01T09:22:20.600Z,44.76
2018-09-01T09:24:55.996Z,44.37
2018-09-01T09:27:26.657Z,44.32
2018-09-01T09:29:57.116Z,44.67
2018-09-01T09:32:27.797Z,43.83
2018-09-01T09:34:58.309Z,45.16
2018-09-01T09:37:29.196Z,45.59
2018-09-01T09:40:00.157Z,44.20
2018-09-01T09:42:31.105Z,43.82
2018-09-01T09:45:01.644Z,44.13
2018-09-01T09:47:32.493Z,43.29
2018-09-01T09:50:03.157Z,44.07
2018-09-01T09:52:34.121Z,44.42
2018-09-01T09:55:04.967Z,44.24
2018-09-01T09:57:35.689Z,44.02
2018-09-01T10:00:07.162Z,44.51
2018-09-01T10:02:37.828Z,44.58
2018-09-01T10:05:08.565Z,45.05
2018-09-01T10:07:39.403Z,44.33
2018-09-01T10:10:10.054Z,44.16
2018-09-01T10:12:40.775Z,44.37
2018-09-01T10:15:11.457Z,44.38
2018-09-01T10:17:42.352Z,44.89
2018-09-01T10:20:13.000Z,45.52
2018-09-01T10:22:43.852Z,45.67
2018-09-01T10:25:14.386Z,45.39
2018-09-01T10:27:45.168Z,44.67
2018-09-01T10:30:15.799Z,44.09
2018-09-01T10:32:46.532Z,46.05
2018-09-01T10:35:17.261Z,45.21
2018-09-01T10:37:48.821Z,46.12
2018-09-01T10:40:19.467Z,46.03
2018-09-01T10:42:50.172Z,45.08
2018-09-01T10:45:20.834Z,44.97
2018-09-01T10:47:51.582Z,45.24
2018-09-01T10:50:22.179Z,45.21
2018-09-01T10:52:53.069Z,44.51
2018-09-01T10:55:23.760Z,45.14
2018-09-01T10:57:54.425Z,44.74
2018-09-01T11:00:25.073Z,45.48
2018-09-01T11:02:56.277Z,47.14
2018-09-01T11:05:27.058Z,45.52
2018-09-01T11:07:57.712Z,45.82
2018-09-01T11:10:28.517Z,45.97
2018-09-01T11:12:59.968Z,46.60
2018-09-01T11:15:30.412Z,46.32
2018-09-01T11:18:01.045Z,47.33
2018-09-01T11:20:31.658Z,44.93
2018-09-01T11:23:02.658Z,44.44
2018-09-01T11:25:33.370Z,44.58
2018-09-01T11:28:05.436Z,46.61
2018-09-01T11:30:36.161Z,47.70
2018-09-01T11:33:07.118Z,45.92
2018-09-01T11:35:37.908Z,47.96
2018-09-01T11:38:08.595Z,47.28
2018-09-01T11:40:39.302Z,47.65
2018-09-01T11:43:10.382Z,47.67
2018-09-01T11:45:40.949Z,47.09
2018-09-01T11:48:11.573Z,46.67
2018-09-01T11:50:42.237Z,47.65
2018-09-01T11:53:13.156Z,45.71
2018-09-01T11:55:43.648Z,45.05
2018-09-01T11:58:14.337Z,46.43
2018-09-01T12:00:44.933Z,45.39
2018-09-01T12:03:15.961Z,46.15
2018-09-01T12:05:46.625Z,45.19
2018-09-01T12:08:18.047Z,45.07
2018-09-01T12:10:48.736Z,45.05
2018-09-01T12:13:19.458Z,44.24
2018-09-01T12:15:50.066Z,43.90
2018-09-01T12:18:20.849Z,46.00
2018-09-01T12:20:52.896Z,46.73
2018-09-01T12:23:25.149Z,45.60
2018-09-01T12:25:55.742Z,45.58
2018-09-01T12:28:27.264Z,44.80
2018-09-01T12:30:57.752Z,45.68
2018-09-01T12:33:28.555Z,45.66
2018-09-01T12:35:59.309Z,44.61
2018-09-01T12:38:30.129Z,45.21
2018-09-01T12:41:00.881Z,45.06
2018-09-01T12:43:31.761Z,45.14
2018-09-01T12:46:02.237Z,45.73
2018-09-01T12:48:32.885Z,44.76
2018-09-01T12:51:03.558Z,44.86
2018-09-01T12:53:34.635Z,45.68
2018-09-01T12:56:05.213Z,44.75
2018-09-01T12:58:36.177Z,44.78
2018-09-01T13:01:06.985Z,45.98
2018-09-01T13:03:37.640Z,46.00
2018-09-01T13:06:08.308Z,45.98
2018-09-01T13:08:39.053Z,45.30
2018-09-01T13:11:09.780Z,47.28
2018-09-01T13:13:42.966Z,46.35
2018-09-01T13:16:14.353Z,46.52
2018-09-01T13:18:45.181Z,46.04
2018-09-01T13:21:15.709Z,45.95
2018-09-01T13:23:46.628Z,45.37
2018-09-01T13:26:17.180Z,44.33
2018-09-01T13:28:47.977Z,44.74
2018-09-01T13:31:18.644Z,45.08
2018-09-01T13:33:49.388Z,44.31
2018-09-01T13:36:20.216Z,45.14
2018-09-01T13:38:50.984Z,44.99
2018-09-01T13:41:21.613Z,44.53
2018-09-01T13:43:52.502Z,44.89
2018-09-01T13:46:23.213Z,45.12
2018-09-01T13:48:54.110Z,45.79
2018-09-01T13:51:24.650Z,44.61
2018-09-01T13:53:55.594Z,46.21
2018-09-01T13:56:26.311Z,46.81
2018-09-01T13:58:57.037Z,47.36
2018-09-01T14:01:27.686Z,45.66
2018-09-01T14:03:58.424Z,46.04
2018-09-01T14:06:29.029Z,45.37
2018-09-01T14:08:59.917Z,44.94
2018-09-01T14:11:30.613Z,45.20
2018-09-01T14:14:01.397Z,44.76
2018-09-01T14:16:32.402Z,45.65
2018-09-01T14:19:03.565Z,45.15
2018-09-01T14:21:34.328Z,45.52
2018-09-01T14:24:05.157Z,44.58
2018-09-01T14:26:35.835Z,44.94
2018-09-01T14:29:06.875Z,45.34
2018-09-01T14:31:37.425Z,46.16
2018-09-01T14:34:08.296Z,44.40
2018-09-01T14:36:39.158Z,45.10
2018-09-01T14:39:11.945Z,45.37
2018-09-01T14:41:42.641Z,44.97
2018-09-01T14:44:13.589Z,44.66
2018-09-01T14:46:44.245Z,45.43
2018-09-01T14:49:15.301Z,44.42
2018-09-01T14:51:45.998Z,44.56
2018-09-01T14:54:16.841Z,44.86
2018-09-01T14:56:47.509Z,44.94
2018-09-01T14:59:18.390Z,44.80
2018-09-01T15:01:49.119Z,45.70
2018-09-01T15:04:20.625Z,44.71
2018-09-01T15:06:51.270Z,45.01
2018-09-01T15:09:21.952Z,45.33
2018-09-01T15:11:52.604Z,44.21
2018-09-01T15:14:23.535Z,44.07
2018-09-01T15:16:54.177Z,44.52
2018-09-01T15:19:24.926Z,44.12
2018-09-01T15:21:55.509Z,43.91
2018-09-01T15:24:26.311Z,43.63
2018-09-01T15:26:56.817Z,43.92
2018-09-01T15:29:27.573Z,43.80
2018-09-01T15:31:58.250Z,44.37
2018-09-01T15:34:29.181Z,43.90
2018-09-01T15:36:59.795Z,44.10
2018-09-01T15:39:30.800Z,44.33
2018-09-01T15:42:01.350Z,44.91
2018-09-01T15:44:32.306Z,45.31
2018-09-01T15:47:02.875Z,44.53
2018-09-01T15:49:33.714Z,44.19
2018-09-01T15:52:04.301Z,43.70
2018-09-01T15:54:35.174Z,44.07
2018-09-01T15:57:05.882Z,44.42
2018-09-01T15:59:36.617Z,44.70
2018-09-01T16:02:07.534Z,45.32
2018-09-01T16:04:38.569Z,45.30
2018-09-01T16:07:08.582Z,45.53
2018-09-01T16:09:39.518Z,45.39
2018-09-01T16:12:10.253Z,45.22
2018-09-01T16:14:40.938Z,44.98
2018-09-01T16:17:11.625Z,44.95
2018-09-01T16:19:42.585Z,44.67
2018-09-01T16:22:13.340Z,44.15
2018-09-01T16:24:44.243Z,43.61
2018-09-01T16:27:14.760Z,43.36
2018-09-01T16:29:45.573Z,43.23
2018-09-01T16:32:16.224Z,43.11
2018-09-01T16:34:47.074Z,42.87
2018-09-01T16:37:17.628Z,42.74
2018-09-01T16:39:48.284Z,42.71
2018-09-01T16:42:18.916Z,42.04
2018-09-01T16:44:49.752Z,41.98
2018-09-01T16:47:20.489Z,41.21
2018-09-01T16:49:51.320Z,41.32
2018-09-01T16:52:21.845Z,41.50
2018-09-01T16:54:52.745Z,41.25
2018-09-01T16:57:23.361Z,41.19
2018-09-01T16:59:54.356Z,41.14
2018-09-01T17:02:24.979Z,41.29
2018-09-01T17:04:55.929Z,41.13
2018-09-01T17:07:26.526Z,40.88
2018-09-01T17:09:57.464Z,40.23
2018-09-01T17:12:28.299Z,40.05
2018-09-01T17:14:59.238Z,39.89
2018-09-01T17:17:29.865Z,40.23
2018-09-01T17:20:00.589Z,40.74
2018-09-01T17:22:31.201Z,41.02
2018-09-01T17:25:02.209Z,41.04
2018-09-01T17:27:33.114Z,40.59
2018-09-01T17:30:04.075Z,40.81
2018-09-01T17:32:35.096Z,40.63
2018-09-01T17:35:05.933Z,39.72
2018-09-01T17:37:36.726Z,39.93
2018-09-01T17:40:07.616Z,40.08
2018-09-01T17:42:38.326Z,40.04
2018-09-01T17:45:09.919Z,39.83
2018-09-01T17:47:40.738Z,39.89
2018-09-01T17:50:11.953Z,39.95
2018-09-01T17:52:42.923Z,39.80
2018-09-01T17:55:13.765Z,38.98
2018-09-01T17:57:44.663Z,39.27
2018-09-01T18:00:15.488Z,39.01
2018-09-01T18:02:46.197Z,39.44
2018-09-01T18:05:17.208Z,39.23
2018-09-01T18:07:47.975Z,38.85
2018-09-01T18:10:19.577Z,39.49
2018-09-01T18:12:50.599Z,38.89
2018-09-01T18:15:21.774Z,38.86
2018-09-01T18:17:53.685Z,38.85
2018-09-01T18:20:24.900Z,39.08
2018-09-01T18:22:55.770Z,38.93
2018-09-01T18:25:26.888Z,38.76
2018-09-01T18:27:57.926Z,38.94
2018-09-01T18:30:29.101Z,37.50
2018-09-01T18:33:00.016Z,37.35
2018-09-01T18:35:31.145Z,37.95
2018-09-01T18:38:01.952Z,38.13
2018-09-01T18:40:32.832Z,37.89
2018-09-01T18:43:04.169Z,37.44
2018-09-01T18:45:35.930Z,38.01
2018-09-01T18:48:07.198Z,37.17
2018-09-01T18:50:38.772Z,37.87
2018-09-01T18:53:09.743Z,38.29
2018-09-01T18:55:41.181Z,38.01
2018-09-01T18:58:12.356Z,38.08
2018-09-01T19:00:43.676Z,37.98
2018-09-01T19:03:14.539Z,37.97
2018-09-01T19:05:45.722Z,37.93
2018-09-01T19:08:16.605Z,37.81
2018-09-01T19:10:47.780Z,37.74
2018-09-01T19:13:18.770Z,37.38
2018-09-01T19:15:49.951Z,37.49
2018-09-01T19:18:21.607Z,37.77
2018-09-01T19:20:52.619Z,37.43
2018-09-01T19:23:23.404Z,37.31
2018-09-01T19:25:54.590Z,37.66
2018-09-01T19:28:25.679Z,36.67
2018-09-01T19:30:56.648Z,36.88
2018-09-01T19:33:27.549Z,36.39
2018-09-01T19:35:58.643Z,36.06
2018-09-01T19:38:29.443Z,35.80
2018-09-01T19:41:01.765Z,35.96
2018-09-01T19:43:32.880Z,36.29
2018-09-01T19:46:03.915Z,36.38
2018-09-01T19:48:34.796Z,36.62
2018-09-01T19:51:05.710Z,36.83
2018-09-01T19:53:36.596Z,36.47
2018-09-01T19:56:07.739Z,36.30
2018-09-01T19:58:38.385Z,36.50
2018-09-01T20:01:09.133Z,36.37
2018-09-01T20:03:39.738Z,36.66
2018-09-01T20:06:10.773Z,36.74
2018-09-01T20:08:41.343Z,36.04
2018-09-01T20:11:12.079Z,34.92
2018-09-01T20:13:42.672Z,34.47
2018-09-01T20:16:13.547Z,34.55
2018-09-01T20:18:44.062Z,34.92
2018-09-01T20:21:14.785Z,35.33
2018-09-01T20:23:45.317Z,35.86
2018-09-01T20:26:16.084Z,35.89
2018-09-01T20:28:46.664Z,35.90
2018-09-01T20:31:17.365Z,35.54
2018-09-01T20:33:47.933Z,34.09
2018-09-01T20:36:21.701Z,34.73
2018-09-01T20:38:52.370Z,34.33
2018-09-01T20:41:24.351Z,34.92
2018-09-01T20:43:54.789Z,35.11
2018-09-01T20:46:25.461Z,35.18
2018-09-01T20:48:55.845Z,34.89
2018-09-01T20:51:26.597Z,34.64
2018-09-01T20:53:57.172Z,34.71
2018-09-01T20:56:28.092Z,34.70
2018-09-01T20:58:58.653Z,35.25
2018-09-01T21:01:29.429Z,35.35
2018-09-01T21:03:59.822Z,35.53
2018-09-01T21:06:30.781Z,35.33
2018-09-01T21:09:02.178Z,34.76
2018-09-01T21:11:33.069Z,35.00
2018-09-01T21:14:03.664Z,35.41
2018-09-01T21:16:34.364Z,35.08
2018-09-01T21:19:04.937Z,35.38
2018-09-01T21:21:35.997Z,35.27
2018-09-01T21:24:06.701Z,35.14
2018-09-01T21:26:37.401Z,34.71
2018-09-01T21:29:07.928Z,33.66
2018-09-01T21:31:38.539Z,33.90
2018-09-01T21:34:09.253Z,34.14
2018-09-01T21:36:40.133Z,34.03
2018-09-01T21:39:10.781Z,34.43
2018-09-01T21:41:41.727Z,34.68
2018-09-01T21:44:12.348Z,34.83
2018-09-01T21:46:42.924Z,34.59
2018-09-01T21:49:13.619Z,34.52
2018-09-01T21:51:44.592Z,34.28
2018-09-01T21:54:15.189Z,34.30
2018-09-01T21:56:45.895Z,34.13
2018-09-01T21:59:16.448Z,33.81
2018-09-01T22:01:52.512Z,34.14
2018-09-01T22:04:23.325Z,34.61
2018-09-01T22:06:54.378Z,34.67
2018-09-01T22:09:25.144Z,34.45
2018-09-01T22:11:55.884Z,34.47
2018-09-01T22:14:26.508Z,33.77
2018-09-01T22:16:57.358Z,33.65
2018-09-01T22:19:27.927Z,32.34
2018-09-01T22:21:58.764Z,33.45
2018-09-01T22:24:29.245Z,32.71
2018-09-01T22:26:59.976Z,32.94
2018-09-01T22:29:30.576Z,32.85
2018-09-01T22:32:01.547Z,32.79
2018-09-01T22:34:32.128Z,32.71
2018-09-01T22:37:02.956Z,33.27
2018-09-01T22:39:33.292Z,33.11
2018-09-01T22:42:03.999Z,32.37
2018-09-01T22:44:34.668Z,31.63
2018-09-01T22:47:10.548Z,32.01
2018-09-01T22:49:41.052Z,32.28
2018-09-01T22:52:11.740Z,32.55
2018-09-01T22:54:42.476Z,32.53
2018-09-01T22:57:13.293Z,32.60
2018-09-01T22:59:43.880Z,32.52
2018-09-01T23:02:14.689Z,32.53
2018-09-01T23:04:44.989Z,31.51
2018-09-01T23:07:15.990Z,32.52
2018-09-01T23:09:46.580Z,32.16
2018-09-01T23:12:17.280Z,32.32
2018-09-01T23:14:47.876Z,31.38
2018-09-01T23:17:18.878Z,32.06
2018-09-01T23:19:49.440Z,32.34
2018-09-01T23:22:20.348Z,32.75
2018-09-01T23:24:50.833Z,32.75
2018-09-01T23:27:21.729Z,32.55
2018-09-01T23:29:52.277Z,32.89
2018-09-01T23:32:23.089Z,32.58
2018-09-01T23:34:53.673Z,32.50
2018-09-01T23:37:24.424Z,32.68
2018-09-01T23:39:54.996Z,30.82
2018-09-01T23:42:25.805Z,30.95
2018-09-01T23:44:56.365Z,30.89
2018-09-01T23:47:27.037Z,31.61
2018-09-01T23:49:57.736Z,31.85
2018-09-01T23:52:28.745Z,32.04
2018-09-01T23:54:59.316Z,31.88
2018-09-01T23:57:30.300Z,31.75
